createdAt,value
2018-05-16T00:00:03.330Z,19.20
2018-05-16T00:03:04.640Z,19.40
2018-05-16T00:06:05.897Z,19.40
2018-05-16T00:09:07.123Z,19.50
2018-05-16T00:12:08.396Z,19.50
2018-05-16T00:15:09.637Z,19.50
2018-05-16T00:18:10.898Z,19.50
2018-05-16T00:21:12.161Z,19.50
2018-05-16T00:24:13.442Z,19.50
2018-05-16T00:27:14.706Z,19.60
2018-05-16T00:30:16.701Z,19.60
2018-05-16T00:33:18.662Z,19.40
2018-05-16T00:36:19.913Z,19.40
2018-05-16T00:39:21.142Z,19.20
2018-05-16T00:42:22.383Z,19.40
2018-05-16T00:45:24.366Z,19.30
2018-05-16T00:48:25.630Z,19.30
2018-05-16T00:51:31.443Z,19.50
2018-05-16T00:54:32.718Z,19.50
2018-05-16T00:57:33.965Z,19.50
2018-05-16T01:00:35.252Z,19.30
2018-05-16T01:03:36.494Z,19.20
2018-05-16T01:06:37.746Z,19.20
2018-05-16T01:09:39.018Z,19.10
2018-05-16T01:12:40.263Z,19.10
2018-05-16T01:15:41.507Z,19.10
2018-05-16T01:18:42.779Z,19.10
2018-05-16T01:21:44.019Z,19.10
2018-05-16T01:24:46.013Z,19.10
2018-05-16T01:27:47.269Z,19.00
2018-05-16T01:30:49.265Z,19.00
2018-05-16T01:33:50.487Z,18.90
2018-05-16T01:36:51.747Z,18.90
2018-05-16T01:39:53.067Z,18.60
2018-05-16T01:42:54.251Z,18.60
2018-05-16T01:45:55.509Z,18.50
2018-05-16T01:49:21.187Z,18.40
2018-05-16T01:52:22.432Z,18.30
2018-05-16T01:55:23.668Z,18.40
2018-05-16T01:58:24.925Z,18.30
2018-05-16T02:01:26.174Z,18.20
2018-05-16T02:04:27.429Z,18.00
2018-05-16T02:07:28.670Z,17.90
2018-05-16T02:10:30.634Z,17.70
2018-05-16T02:13:31.924Z,17.70
2018-05-16T02:16:33.970Z,17.40
2018-05-16T02:19:35.243Z,17.40
2018-05-16T02:22:36.545Z,17.80
2018-05-16T02:25:37.782Z,18.00
2018-05-16T02:28:39.768Z,18.20
2018-05-16T02:31:41.727Z,18.20
2018-05-16T02:34:42.986Z,18.20
2018-05-16T02:37:44.223Z,18.20
2018-05-16T02:40:45.454Z,18.20
2018-05-16T02:43:46.708Z,18.20
2018-05-16T02:46:47.961Z,18.20
2018-05-16T02:49:49.930Z,18.30
2018-05-16T02:52:51.187Z,18.20
2018-05-16T02:55:52.452Z,18.20
2018-05-16T02:58:53.737Z,18.10
2018-05-16T03:01:55.764Z,18.00
2018-05-16T03:04:57.053Z,18.00
2018-05-16T03:07:58.313Z,18.00
2018-05-16T03:10:59.585Z,17.90
2018-05-16T03:14:00.802Z,17.80
2018-05-16T03:17:02.061Z,17.90
2018-05-16T03:20:03.323Z,17.90
2018-05-16T03:23:04.599Z,17.80
2018-05-16T03:26:05.836Z,17.70
2018-05-16T03:29:07.079Z,17.70
2018-05-16T03:32:09.040Z,17.70
2018-05-16T03:35:10.306Z,17.60
2018-05-16T03:38:11.552Z,17.60
2018-05-16T03:41:12.775Z,17.50
2018-05-16T03:44:14.022Z,17.50
2018-05-16T03:47:16.021Z,17.50
2018-05-16T03:50:17.289Z,17.50
2018-05-16T03:53:18.522Z,17.40
2018-05-16T03:56:20.544Z,17.10
2018-05-16T03:59:40.511Z,17.10
2018-05-16T04:03:00.961Z,17.30
2018-05-16T04:06:02.215Z,17.20
2018-05-16T04:09:03.512Z,17.20
2018-05-16T04:12:04.770Z,17.20
2018-05-16T04:15:06.004Z,17.20
2018-05-16T04:18:07.258Z,17.20
2018-05-16T04:21:08.499Z,17.20
2018-05-16T04:24:10.503Z,17.10
2018-05-16T04:27:11.740Z,17.10
2018-05-16T04:30:13.725Z,17.10
2018-05-16T04:33:15.683Z,17.00
2018-05-16T04:36:16.907Z,17.10
2018-05-16T04:39:18.131Z,17.10
2018-05-16T04:42:20.111Z,17.20
2018-05-16T04:45:22.100Z,17.10
2018-05-16T04:48:23.381Z,17.10
2018-05-16T04:51:24.636Z,17.10
2018-05-16T04:54:25.893Z,17.20
2018-05-16T04:57:27.152Z,17.20
2018-05-16T05:00:28.439Z,17.00
2018-05-16T05:03:29.709Z,17.10
2018-05-16T05:06:31.025Z,17.20
2018-05-16T05:09:33.006Z,17.00
2018-05-16T05:12:35.026Z,17.10
2018-05-16T05:15:36.283Z,17.00
2018-05-16T05:18:37.663Z,16.90
2018-05-16T05:21:38.782Z,17.00
2018-05-16T05:24:40.818Z,16.80
2018-05-16T05:27:42.054Z,16.80
2018-05-16T05:30:43.306Z,17.00
2018-05-16T05:33:44.563Z,17.20
2018-05-16T05:36:45.806Z,17.20
2018-05-16T05:39:47.783Z,17.40
2018-05-16T05:42:49.025Z,17.30
2018-05-16T05:45:50.262Z,17.30
2018-05-16T05:48:51.513Z,17.40
2018-05-16T05:51:52.787Z,17.40
2018-05-16T05:54:54.019Z,17.40
2018-05-16T05:57:56.036Z,17.40
2018-05-16T06:00:57.313Z,17.50
2018-05-16T06:03:58.548Z,17.40
2018-05-16T06:06:59.795Z,17.50
2018-05-16T06:10:01.052Z,17.50
2018-05-16T06:13:02.309Z,17.50
2018-05-16T06:16:04.321Z,17.50
2018-05-16T06:19:05.582Z,17.50
2018-05-16T06:22:06.830Z,17.50
2018-05-16T06:25:08.102Z,17.60
2018-05-16T06:28:09.359Z,17.60
2018-05-16T06:31:10.601Z,17.70
2018-05-16T06:34:12.587Z,17.60
2018-05-16T06:37:14.606Z,17.60
2018-05-16T06:40:15.850Z,17.60
2018-05-16T06:43:17.091Z,17.70
2018-05-16T06:46:19.083Z,17.70
2018-05-16T06:49:20.329Z,17.70
2018-05-16T06:52:22.287Z,17.90
2018-05-16T06:55:23.547Z,17.90
2018-05-16T06:58:24.778Z,17.80
2018-05-16T07:01:26.044Z,17.80
2018-05-16T07:04:27.291Z,17.90
2018-05-16T07:07:28.573Z,18.00
2018-05-16T07:10:29.825Z,18.20
2018-05-16T07:13:31.215Z,18.30
2018-05-16T07:16:32.396Z,18.40
2018-05-16T07:19:33.675Z,18.60
2018-05-16T07:22:35.657Z,18.80
2018-05-16T07:25:37.667Z,18.80
2018-05-16T07:28:38.898Z,18.80
2018-05-16T07:31:40.922Z,18.70
2018-05-16T07:34:42.171Z,18.70
2018-05-16T07:37:43.453Z,18.70
2018-05-16T07:40:44.712Z,18.70
2018-05-16T07:43:45.974Z,18.80
2018-05-16T07:46:47.234Z,18.90
2018-05-16T07:49:48.486Z,19.00
2018-05-16T07:52:49.772Z,19.10
2018-05-16T07:55:51.008Z,19.10
2018-05-16T07:58:52.251Z,19.10
2018-05-16T08:01:54.260Z,19.00
2018-05-16T08:04:55.504Z,19.00
2018-05-16T08:07:57.493Z,19.00
2018-05-16T08:10:58.760Z,19.00
2018-05-16T08:14:00.028Z,19.20
2018-05-16T08:17:01.279Z,19.20
2018-05-16T08:20:02.594Z,19.20
2018-05-16T08:23:03.869Z,19.20
2018-05-16T08:26:05.158Z,19.30
2018-05-16T08:29:07.165Z,19.50
2018-05-16T08:32:08.421Z,19.40
2018-05-16T08:35:09.685Z,19.60
2018-05-16T08:38:10.925Z,19.60
2018-05-16T08:41:12.894Z,19.80
2018-05-16T08:44:14.134Z,19.80
2018-05-16T08:47:15.412Z,19.70
2018-05-16T08:50:16.699Z,19.60
2018-05-16T08:53:18.689Z,19.90
2018-05-16T08:56:20.681Z,20.00
2018-05-16T08:59:21.899Z,20.00
2018-05-16T09:02:23.151Z,20.10
2018-05-16T09:05:24.402Z,20.10
2018-05-16T09:08:25.681Z,20.10
2018-05-16T09:11:26.918Z,20.20
2018-05-16T09:14:28.185Z,20.20
2018-05-16T09:17:29.430Z,20.30
2018-05-16T09:20:30.686Z,20.20
2018-05-16T09:23:31.911Z,20.10
2018-05-16T09:26:33.166Z,20.10
2018-05-16T09:29:34.415Z,20.30
2018-05-16T09:32:35.696Z,20.20
2018-05-16T09:35:36.942Z,20.30
2018-05-16T09:38:38.194Z,20.20
2018-05-16T09:41:39.460Z,20.00
2018-05-16T09:44:41.442Z,20.10
2018-05-16T09:47:42.681Z,20.10
2018-05-16T09:50:43.952Z,20.10
2018-05-16T09:53:45.183Z,20.20
2018-05-16T09:56:47.204Z,20.20
2018-05-16T09:59:48.436Z,20.20
2018-05-16T10:02:49.742Z,20.10
2018-05-16T10:05:50.961Z,20.20
2018-05-16T10:08:52.218Z,20.40
2018-05-16T10:11:54.208Z,20.20
2018-05-16T10:14:55.542Z,20.20
2018-05-16T10:17:56.774Z,20.10
2018-05-16T10:20:58.065Z,20.10
2018-05-16T10:23:59.317Z,20.00
2018-05-16T10:27:00.558Z,19.90
2018-05-16T10:30:01.824Z,20.00
2018-05-16T10:33:03.122Z,20.00
2018-05-16T10:36:05.115Z,20.20
2018-05-16T10:39:07.117Z,20.10
2018-05-16T10:42:08.399Z,20.10
2018-05-16T10:45:09.645Z,20.20
2018-05-16T10:48:10.883Z,20.30
2018-05-16T10:51:12.891Z,20.30
2018-05-16T10:54:14.138Z,20.30
2018-05-16T10:57:15.371Z,20.40
2018-05-16T11:00:16.596Z,20.50
2018-05-16T11:03:17.859Z,20.50
2018-05-16T11:06:19.115Z,20.60
2018-05-16T11:09:20.382Z,20.60
2018-05-16T11:12:21.622Z,20.90
2018-05-16T11:15:22.905Z,21.10
2018-05-16T11:18:24.168Z,21.40
2018-05-16T11:21:25.496Z,21.40
2018-05-16T11:24:26.683Z,21.30
2018-05-16T11:27:27.974Z,21.10
2018-05-16T11:30:29.230Z,21.10
2018-05-16T11:33:30.503Z,20.80
2018-05-16T11:36:31.792Z,20.70
2018-05-16T11:39:33.006Z,20.60
2018-05-16T11:42:34.271Z,20.40
2018-05-16T11:45:35.537Z,20.50
2018-05-16T11:48:36.805Z,20.40
2018-05-16T11:51:38.057Z,20.30
2018-05-16T11:54:39.325Z,20.20
2018-05-16T11:57:40.573Z,20.20
2018-05-16T12:00:41.795Z,20.40
2018-05-16T12:03:43.058Z,20.30
2018-05-16T12:06:44.315Z,20.10
2018-05-16T12:09:45.555Z,19.90
2018-05-16T12:12:46.794Z,19.80
2018-05-16T12:15:48.064Z,19.80
2018-05-16T12:18:49.291Z,19.60
2018-05-16T12:21:51.314Z,19.30
2018-05-16T12:24:52.546Z,19.30
2018-05-16T12:27:54.549Z,19.30
2018-05-16T12:30:55.805Z,19.30
2018-05-16T12:33:57.054Z,19.40
2018-05-16T12:36:59.058Z,19.30
2018-05-16T12:40:00.310Z,19.30
2018-05-16T12:43:15.795Z,19.20
2018-05-16T12:46:17.030Z,19.10
2018-05-16T12:49:18.272Z,18.90
2018-05-16T12:52:19.531Z,18.90
2018-05-16T12:55:20.771Z,18.90
2018-05-16T12:58:22.036Z,18.90
2018-05-16T13:01:23.304Z,18.80
2018-05-16T13:04:24.585Z,18.90
2018-05-16T13:07:25.860Z,18.90
2018-05-16T13:10:27.121Z,18.90
2018-05-16T13:13:28.380Z,18.90
2018-05-16T13:16:29.622Z,19.10
2018-05-16T13:19:30.836Z,19.20
2018-05-16T13:22:32.812Z,19.10
2018-05-16T13:25:34.044Z,19.10
2018-05-16T13:28:35.328Z,19.00
2018-05-16T13:31:36.583Z,19.10
2018-05-16T13:34:37.913Z,19.10
2018-05-16T13:37:39.205Z,19.10
2018-05-16T13:40:40.536Z,19.00
2018-05-16T13:43:41.808Z,19.10
2018-05-16T13:46:43.111Z,19.80
2018-05-16T13:49:44.413Z,19.90
2018-05-16T13:52:45.693Z,19.70
2018-05-16T13:55:46.944Z,19.60
2018-05-16T13:58:48.211Z,19.50
2018-05-16T14:01:49.449Z,19.50
2018-05-16T14:04:51.463Z,19.70
2018-05-16T14:07:52.741Z,19.70
2018-05-16T14:10:54.056Z,19.80
2018-05-16T14:13:56.083Z,19.90
2018-05-16T14:16:57.971Z,19.90
2018-05-16T14:19:59.831Z,20.10
2018-05-16T14:23:02.622Z,19.90
2018-05-16T14:26:11.814Z,20.00
2018-05-16T14:29:13.102Z,20.20
2018-05-16T14:32:15.150Z,20.40
2018-05-16T14:35:16.454Z,20.40
2018-05-16T14:38:18.451Z,20.60
2018-05-16T14:41:19.722Z,20.60
2018-05-16T14:44:21.014Z,20.60
2018-05-16T14:47:22.334Z,20.80
2018-05-16T14:50:23.653Z,20.80
2018-05-16T14:53:24.961Z,20.80
2018-05-16T14:56:27.093Z,20.90
2018-05-16T14:59:28.408Z,21.00
2018-05-16T15:02:30.419Z,20.80
2018-05-16T15:05:31.699Z,20.80
2018-05-16T15:08:32.955Z,20.60
2018-05-16T15:11:34.200Z,20.50
2018-05-16T15:14:35.473Z,20.40
2018-05-16T15:17:36.731Z,20.40
2018-05-16T15:20:37.959Z,20.40
2018-05-16T15:23:39.945Z,20.50
2018-05-16T15:26:41.939Z,20.30
2018-05-16T15:29:43.189Z,20.30
2018-05-16T15:32:45.199Z,20.00
2018-05-16T15:35:46.443Z,20.00
2018-05-16T15:38:47.670Z,20.00
2018-05-16T15:41:48.965Z,20.20
2018-05-16T15:44:50.210Z,20.30
2018-05-16T15:47:52.218Z,20.10
2018-05-16T15:50:53.467Z,20.10
2018-05-16T15:53:55.494Z,19.90
2018-05-16T15:56:57.604Z,19.90
2018-05-16T16:00:00.189Z,19.90
2018-05-16T16:03:01.819Z,19.90
2018-05-16T16:06:03.363Z,19.90
2018-05-16T16:09:05.426Z,19.50
2018-05-16T16:12:06.699Z,19.50
2018-05-16T16:15:08.700Z,19.40
2018-05-16T16:18:09.980Z,19.40
2018-05-16T16:21:11.275Z,19.40
2018-05-16T16:24:12.894Z,19.40
2018-05-16T16:27:14.395Z,19.40
2018-05-16T16:30:16.072Z,19.20
2018-05-16T16:33:17.365Z,19.00
2018-05-16T16:36:18.630Z,18.90
2018-05-16T16:39:19.873Z,18.60
2018-05-16T16:42:21.151Z,19.30
2018-05-16T16:45:22.421Z,19.70
2018-05-16T16:48:23.681Z,19.50
2018-05-16T16:51:24.946Z,19.10
2018-05-16T16:54:26.324Z,19.10
2018-05-16T16:57:27.475Z,19.00
2018-05-16T17:00:28.944Z,18.90
2018-05-16T17:03:30.239Z,18.80
2018-05-16T17:06:32.274Z,18.40
2018-05-16T17:09:34.315Z,18.50
2018-05-16T17:12:35.593Z,18.50
2018-05-16T17:15:36.818Z,18.60
2018-05-16T17:18:38.796Z,18.70
2018-05-16T17:21:40.819Z,18.70
2018-05-16T17:24:42.086Z,18.70
2018-05-16T17:27:43.330Z,18.70
2018-05-16T17:30:44.591Z,18.70
2018-05-16T17:33:45.850Z,18.70
2018-05-16T17:36:47.170Z,18.60
2018-05-16T17:39:48.394Z,18.60
2018-05-16T17:42:49.673Z,18.60
2018-05-16T17:45:50.908Z,18.40
2018-05-16T17:48:52.154Z,18.50
2018-05-16T17:51:54.126Z,18.80
2018-05-16T17:54:56.111Z,18.40
2018-05-16T17:57:58.117Z,18.30
2018-05-16T18:00:59.360Z,18.20
2018-05-16T18:04:01.373Z,17.90
2018-05-16T18:07:02.649Z,17.90
2018-05-16T18:10:03.907Z,17.90
2018-05-16T18:17:18.933Z,17.70
2018-05-16T18:20:20.995Z,18.00
2018-05-16T18:23:22.992Z,17.90
2018-05-16T18:26:25.190Z,17.90
2018-05-16T18:29:26.925Z,17.90
2018-05-16T18:32:28.275Z,17.90
2018-05-16T18:35:30.014Z,18.00
2018-05-16T18:38:31.395Z,18.00
2018-05-16T18:41:33.208Z,17.80
2018-05-16T18:44:34.619Z,17.80
2018-05-16T18:47:36.157Z,17.90
2018-05-16T18:50:37.570Z,17.90
2018-05-16T18:53:38.930Z,17.80
2018-05-16T18:56:40.715Z,17.80
2018-05-16T18:59:42.114Z,17.80
2018-05-16T19:02:43.365Z,17.90
2018-05-16T19:05:45.732Z,17.80
2018-05-16T19:08:47.999Z,17.90
2018-05-16T19:11:50.241Z,17.90
2018-05-16T19:14:52.572Z,17.90
2018-05-16T19:17:54.093Z,17.90
2018-05-16T19:20:55.381Z,17.80
2018-05-16T19:23:56.800Z,17.90
2018-05-16T19:26:58.288Z,17.90
2018-05-16T19:30:00.013Z,17.90
2018-05-16T19:33:02.032Z,17.80
2018-05-16T19:36:03.597Z,17.80
2018-05-16T19:39:04.947Z,17.70
2018-05-16T19:42:06.560Z,17.70
2018-05-16T19:45:07.849Z,17.70
2018-05-16T19:48:10.395Z,17.60
2018-05-16T19:51:11.993Z,17.60
2018-05-16T19:54:13.244Z,17.70
2018-05-16T19:57:15.591Z,17.70
2018-05-16T20:00:17.239Z,17.70
2018-05-16T20:03:19.708Z,17.60
2018-05-16T20:06:20.973Z,17.60
2018-05-16T20:09:22.235Z,17.50
2018-05-16T20:12:23.512Z,17.40
2018-05-16T20:15:24.828Z,17.40
2018-05-16T20:18:26.083Z,17.50
2018-05-16T20:21:28.138Z,17.50
2018-05-16T20:24:30.063Z,17.40
2018-05-16T20:27:31.360Z,17.20
2018-05-16T20:30:32.607Z,17.20
2018-05-16T20:33:34.273Z,17.30
2018-05-16T20:36:35.507Z,17.30
2018-05-16T20:39:36.743Z,17.40
2018-05-16T20:42:38.739Z,17.20
2018-05-16T20:45:39.999Z,17.20
2018-05-16T20:48:41.235Z,17.20
2018-05-16T20:51:42.479Z,17.20
2018-05-16T20:54:43.835Z,17.20
2018-05-16T20:57:45.085Z,17.20
2018-05-16T21:00:53.263Z,17.10
2018-05-16T21:03:54.694Z,17.00
2018-05-16T21:06:55.936Z,16.80
2018-05-16T21:09:57.220Z,16.80
2018-05-16T21:12:59.459Z,16.70
2018-05-16T21:16:00.749Z,16.70
2018-05-16T21:19:02.007Z,16.70
2018-05-16T21:22:03.930Z,16.60
2018-05-16T21:25:05.976Z,16.70
2018-05-16T21:28:08.943Z,16.70
2018-05-16T21:31:10.572Z,16.70
2018-05-16T21:34:14.097Z,16.70
2018-05-16T21:37:15.342Z,16.60
2018-05-16T21:40:16.602Z,16.40
2018-05-16T21:43:17.839Z,16.50
2018-05-16T21:46:19.474Z,16.60
2018-05-16T21:49:21.095Z,16.80
2018-05-16T21:52:22.724Z,16.70
2018-05-16T21:55:23.987Z,16.70
2018-05-16T21:58:25.986Z,16.50
2018-05-16T22:01:27.293Z,16.50
2018-05-16T22:04:28.550Z,16.50
2018-05-16T22:07:29.805Z,16.50
2018-05-16T22:10:31.097Z,16.60
2018-05-16T22:13:32.352Z,16.60
2018-05-16T22:16:33.614Z,16.50
2018-05-16T22:19:34.906Z,16.50
2018-05-16T22:22:36.099Z,16.40
2018-05-16T22:25:37.365Z,16.50
2018-05-16T22:28:38.621Z,16.40
2018-05-16T22:31:46.050Z,16.40
2018-05-16T22:34:53.433Z,16.30
2018-05-16T22:38:00.749Z,16.20
2018-05-16T22:41:08.307Z,16.30
2018-05-16T22:44:13.518Z,16.40
2018-05-16T22:47:14.817Z,16.30
2018-05-16T22:50:16.049Z,16.30
2018-05-16T22:53:17.315Z,16.30
2018-05-16T22:56:18.542Z,16.20
2018-05-16T22:59:20.536Z,16.20
2018-05-16T23:02:21.813Z,16.20
2018-05-16T23:05:23.089Z,16.30
2018-05-16T23:08:24.329Z,16.10
2018-05-16T23:11:25.595Z,16.10
2018-05-16T23:14:26.827Z,16.00
2018-05-16T23:17:28.824Z,15.90
2018-05-16T23:20:30.814Z,16.00
2018-05-16T23:23:32.078Z,16.00
2018-05-16T23:26:33.329Z,15.90
2018-05-16T23:29:35.336Z,15.80
2018-05-16T23:32:36.596Z,15.70
2018-05-16T23:35:37.855Z,15.70
2018-05-16T23:38:39.086Z,15.80
2018-05-16T23:41:40.326Z,15.70
2018-05-16T23:44:41.591Z,15.80
2018-05-16T23:47:42.857Z,15.80
2018-05-16T23:50:44.083Z,15.80
2018-05-16T23:53:45.345Z,15.80
2018-05-16T23:56:46.585Z,15.80
2018-05-16T23:59:49.261Z,15.70
